Station Historical Data
Daily Summary for February 4, 2017 Units:  English    Metric   Both
« Previous Day
Next Day »
Daily Weekly Monthly Yearly Custom
  High: Low: Average:
Temperature: 47.9 °F 44.4 °F 46.3 °F
Dew Point: 46.8 °F 43.1 °F 45 °F
Humidity: 96 % 95 % 95 %
Wind Speed: 17.0 mph 0.0 mph 4 mph
Wind Gust: 20.0 mph - -
Wind:- - South
Pressure: 30.18 in 30.10 in -
Precipitation: 0.21 in    
Historical Graphs
 
 
Tabular Data for February 4, 2017
Time Temperature Dew Point Pressure Wind Wind Speed Wind Gust Humidity Rainfall Rate (Hourly) solar
00:01 46.1 °F 44.8 °F 30.11 in SSW 5.0 mph 13.0 mph 95 % 0.14 in 0.00 W/m2
00:06 46.1 °F 44.8 °F 30.10 in South 5.0 mph 14.0 mph 95 % 0.29 in 0.00 W/m2
00:11 46.1 °F 44.8 °F 30.11 in SSE 8.0 mph 15.0 mph 95 % 0.18 in 0.00 W/m2
00:16 46.0 °F 44.7 °F 30.11 in SSE 4.0 mph 16.0 mph 95 % 0.61 in 0.00 W/m2
00:21 46.0 °F 44.7 °F 30.11 in SSE 10.0 mph 14.0 mph 95 % 0.18 in 0.00 W/m2
00:26 46.0 °F 44.7 °F 30.11 in South 10.0 mph 13.0 mph 95 % 0.08 in 0.00 W/m2
00:31 46.1 °F 44.8 °F 30.11 in South 7.0 mph 15.0 mph 95 % 0.05 in 0.00 W/m2
00:36 46.1 °F 44.8 °F 30.11 in South 17.0 mph 19.0 mph 95 % 0.04 in 0.00 W/m2
00:41 46.1 °F 44.8 °F 30.11 in South 8.0 mph 20.0 mph 95 % 0.04 in 0.00 W/m2
00:46 46.1 °F 44.8 °F 30.11 in SSE 9.0 mph 13.0 mph 95 % 0.04 in 0.00 W/m2
00:51 46.1 °F 44.8 °F 30.12 in SSW 9.0 mph 14.0 mph 95 % 0.00 in 0.00 W/m2
00:56 46.2 °F 44.8 °F 30.12 in SSW 12.0 mph 18.0 mph 95 % 0.00 in 0.00 W/m2
01:01 46.1 °F 44.8 °F 30.12 in South 6.0 mph 14.0 mph 95 % 0.00 in 0.00 W/m2
01:06 46.1 °F 44.8 °F 30.12 in South 7.0 mph 16.0 mph 95 % 0.00 in 0.00 W/m2
01:11 46.1 °F 44.8 °F 30.12 in Calm   12.0 mph 95 % 0.00 in 0.00 W/m2
01:16 46.1 °F 44.8 °F 30.12 in South 11.0 mph 13.0 mph 95 % 0.00 in 0.00 W/m2
01:21 46.0 °F 44.7 °F 30.12 in Calm   12.0 mph 95 % 0.00 in 0.00 W/m2
01:26 46.0 °F 44.7 °F 30.12 in South 10.0 mph 16.0 mph 95 % 0.00 in 0.00 W/m2
01:31 46.1 °F 44.8 °F 30.12 in South 11.0 mph 17.0 mph 95 % 0.00 in 0.00 W/m2
01:36 46.1 °F 44.8 °F 30.12 in Calm   12.0 mph 95 % 0.00 in 0.00 W/m2
01:41 46.1 °F 44.8 °F 30.12 in South 12.0 mph 13.0 mph 95 % 0.00 in 0.00 W/m2
01:46 46.1 °F 44.8 °F 30.12 in SSE 12.0 mph 15.0 mph 95 % 0.00 in 0.00 W/m2
01:51 46.1 °F 44.8 °F 30.12 in South 8.0 mph 8.0 mph 95 % 0.00 in 0.00 W/m2
01:56 46.1 °F 44.8 °F 30.12 in Calm   12.0 mph 95 % 0.00 in 0.00 W/m2
02:01 46.1 °F 44.8 °F 30.12 in South 5.0 mph 10.0 mph 95 % 0.00 in 0.00 W/m2
02:06 46.1 °F 44.8 °F 30.12 in SSW 10.0 mph 12.0 mph 95 % 0.00 in 0.00 W/m2
02:11 46.1 °F 44.8 °F 30.12 in South 7.0 mph 16.0 mph 95 % 0.00 in 0.00 W/m2
02:16 46.1 °F 44.8 °F 30.12 in SSW 2.0 mph 9.0 mph 95 % 0.00 in 0.00 W/m2
02:21 46.1 °F 44.8 °F 30.12 in Calm   9.0 mph 95 % 0.00 in 0.00 W/m2
02:26 46.1 °F 44.8 °F 30.12 in SSW 5.0 mph 8.0 mph 95 % 0.00 in 0.00 W/m2
02:31 46.1 °F 44.8 °F 30.12 in Calm   10.0 mph 95 % 0.00 in 0.00 W/m2
02:36 46.0 °F 44.7 °F 30.12 in SSW 7.0 mph 11.0 mph 95 % 0.00 in 0.00 W/m2
02:41 46.0 °F 44.7 °F 30.12 in Calm   13.0 mph 95 % 0.00 in 0.00 W/m2
02:46 46.0 °F 44.7 °F 30.12 in Calm   13.0 mph 95 % 0.00 in 0.00 W/m2
02:51 46.0 °F 44.7 °F 30.12 in Calm   13.0 mph 95 % 0.00 in 0.00 W/m2
02:56 46.0 °F 44.7 °F 30.12 in South 8.0 mph 8.0 mph 95 % 0.00 in 0.00 W/m2
03:01 46.0 °F 44.7 °F 30.12 in SSW 5.0 mph 5.0 mph 95 % 0.00 in 0.00 W/m2
03:06 46.0 °F 44.7 °F 30.12 in South 8.0 mph 10.0 mph 95 % 0.00 in 0.00 W/m2
03:11 46.0 °F 44.7 °F 30.11 in South 2.0 mph 2.0 mph 95 % 0.00 in 0.00 W/m2
03:16 46.0 °F 44.7 °F 30.11 in Calm   1.0 mph 95 % 0.00 in 0.00 W/m2
03:21 45.9 °F 44.5 °F 30.11 in South 8.0 mph 9.0 mph 95 % 0.00 in 0.00 W/m2
03:26 45.9 °F 44.5 °F 30.11 in Calm     95 % 0.00 in 0.00 W/m2
03:31 45.9 °F 44.5 °F 30.11 in Calm     95 % 0.00 in 0.00 W/m2
03:36 45.9 °F 44.5 °F 30.11 in SSE 1.0 mph 1.0 mph 95 % 0.00 in 0.00 W/m2
03:41 45.9 °F 44.5 °F 30.11 in Calm     95 % 0.00 in 0.00 W/m2
03:46 45.9 °F 44.5 °F 30.11 in SSE 8.0 mph 9.0 mph 95 % 0.00 in 0.00 W/m2
03:51 45.9 °F 44.5 °F 30.11 in Calm     95 % 0.00 in 0.00 W/m2
03:56 45.9 °F 44.5 °F 30.11 in Calm     95 % 0.00 in 0.00 W/m2
04:01 45.9 °F 44.5 °F 30.11 in SSW 6.0 mph 6.0 mph 95 % 0.00 in 0.00 W/m2
04:06 45.9 °F 44.5 °F 30.10 in Calm     95 % 0.00 in 0.00 W/m2
04:11 45.9 °F 44.5 °F 30.11 in SSW 11.0 mph 12.0 mph 95 % 0.00 in 0.00 W/m2
04:16 45.9 °F 44.5 °F 30.11 in SSW 5.0 mph 8.0 mph 95 % 0.00 in 0.00 W/m2
04:21 45.9 °F 44.5 °F 30.11 in South 4.0 mph 7.0 mph 95 % 0.00 in 0.00 W/m2
04:26 45.9 °F 44.5 °F 30.10 in Calm     95 % 0.00 in 0.00 W/m2
04:31 45.9 °F 44.5 °F 30.10 in South 7.0 mph 10.0 mph 95 % 0.00 in 0.00 W/m2
04:36 45.9 °F 44.5 °F 30.10 in SSE 10.0 mph 12.0 mph 95 % 0.00 in 0.00 W/m2
04:41 45.9 °F 44.5 °F 30.10 in SSW 6.0 mph 7.0 mph 95 % 0.00 in 0.00 W/m2
04:46 45.9 °F 44.5 °F 30.10 in SSW 5.0 mph 8.0 mph 95 % 0.00 in 0.00 W/m2
04:51 45.9 °F 44.5 °F 30.10 in South 8.0 mph 8.0 mph 95 % 0.00 in 0.00 W/m2
04:56 45.9 °F 44.5 °F 30.10 in SSW 4.0 mph 9.0 mph 95 % 0.00 in 0.00 W/m2
05:01 45.9 °F 44.5 °F 30.10 in SSW 7.0 mph 7.0 mph 95 % 0.00 in 0.00 W/m2
05:06 46.0 °F 44.7 °F 30.10 in Calm   7.0 mph 95 % 0.00 in 0.00 W/m2
05:11 46.0 °F 44.7 °F 30.10 in Calm     95 % 0.00 in 0.00 W/m2
05:16 46.0 °F 44.7 °F 30.11 in South 6.0 mph 11.0 mph 95 % 0.00 in 0.00 W/m2
05:21 46.0 °F 44.7 °F 30.11 in SSE 2.0 mph 6.0 mph 95 % 0.00 in 0.00 W/m2
05:26 46.1 °F 44.8 °F 30.11 in Calm     95 % 0.00 in 0.00 W/m2
05:31 46.1 °F 44.8 °F 30.11 in South 7.0 mph 12.0 mph 95 % 0.00 in 0.00 W/m2
05:36 46.1 °F 44.8 °F 30.11 in South 11.0 mph 13.0 mph 95 % 0.00 in 0.00 W/m2
05:41 46.2 °F 44.8 °F 30.11 in South 9.0 mph 13.0 mph 95 % 0.00 in 0.00 W/m2
05:46 46.2 °F 44.8 °F 30.12 in South 11.0 mph 16.0 mph 95 % 0.00 in 0.00 W/m2
05:51 46.2 °F 44.8 °F 30.12 in South 10.0 mph 14.0 mph 95 % 0.00 in 0.00 W/m2
05:56 46.3 °F 45.0 °F 30.12 in South 6.0 mph 10.0 mph 95 % 0.00 in 0.00 W/m2
06:01 46.3 °F 45.0 °F 30.12 in South 6.0 mph 10.0 mph 95 % 0.00 in 0.00 W/m2
06:06 46.3 °F 45.0 °F 30.13 in SSW 11.0 mph 12.0 mph 95 % 0.00 in 0.00 W/m2
06:11 46.3 °F 45.0 °F 30.13 in Calm   20.0 mph 95 % 0.00 in 0.00 W/m2
06:16 46.3 °F 45.0 °F 30.12 in SSW 6.0 mph 6.0 mph 95 % 0.00 in 0.00 W/m2
06:21 46.3 °F 45.0 °F 30.13 in South 12.0 mph 13.0 mph 95 % 0.00 in 0.00 W/m2
06:26 46.3 °F 45.0 °F 30.13 in SSW 9.0 mph 9.0 mph 95 % 0.00 in 0.00 W/m2
06:31 46.3 °F 45.0 °F 30.13 in South 11.0 mph 11.0 mph 95 % 0.00 in 0.00 W/m2
06:36 46.2 °F 44.8 °F 30.13 in South 11.0 mph 13.0 mph 95 % 0.00 in 0.00 W/m2
06:42 46.2 °F 44.8 °F 30.13 in SSW 6.0 mph 11.0 mph 95 % 0.00 in 0.00 W/m2
06:46 46.2 °F 44.8 °F 30.13 in SSW 5.0 mph 11.0 mph 95 % 0.00 in 0.00 W/m2
06:51 46.2 °F 44.8 °F 30.13 in South 6.0 mph 9.0 mph 95 % 0.00 in 0.00 W/m2
06:56 46.2 °F 44.8 °F 30.13 in South 11.0 mph 13.0 mph 95 % 0.00 in 0.00 W/m2
07:02 46.2 °F 44.8 °F 30.13 in South 5.0 mph 12.0 mph 95 % 0.00 in 0.00 W/m2
07:07 46.2 °F 44.8 °F 30.14 in South 7.0 mph 10.0 mph 95 % 0.00 in 0.00 W/m2
07:12 46.1 °F 44.8 °F 30.14 in South 6.0 mph 9.0 mph 95 % 0.00 in 0.00 W/m2
07:17 46.1 °F 44.8 °F 30.14 in South 7.0 mph 7.0 mph 95 % 0.00 in 0.00 W/m2
07:22 46.1 °F 44.8 °F 30.14 in SSW 12.0 mph 12.0 mph 95 % 0.00 in 5.00 W/m2
07:27 46.1 °F 44.8 °F 30.14 in South 7.0 mph 13.0 mph 95 % 0.00 in 7.00 W/m2
07:32 46.0 °F 44.7 °F 30.14 in South 6.0 mph 10.0 mph 95 % 0.00 in 9.00 W/m2
07:37 46.0 °F 44.7 °F 30.14 in SSW 9.0 mph 10.0 mph 95 % 0.00 in 14.00 W/m2
07:42 46.0 °F 44.7 °F 30.14 in SW 2.0 mph 9.0 mph 95 % 0.00 in 16.00 W/m2
07:47 46.0 °F 44.7 °F 30.14 in South 10.0 mph 10.0 mph 95 % 0.00 in 23.00 W/m2
07:52 45.9 °F 44.5 °F 30.14 in Calm     95 % 0.00 in 25.00 W/m2
07:57 45.9 °F 44.5 °F 30.14 in Calm     95 % 0.00 in 16.00 W/m2
08:02 46.0 °F 44.7 °F 30.14 in Calm     95 % 0.00 in 12.00 W/m2
08:07 46.0 °F 44.7 °F 30.14 in SSW 3.0 mph 7.0 mph 95 % 0.00 in 14.00 W/m2
08:12 46.0 °F 44.7 °F 30.14 in South 4.0 mph 11.0 mph 95 % 0.00 in 21.00 W/m2
08:17 46.1 °F 44.8 °F 30.14 in Calm   4.0 mph 95 % 0.00 in 12.00 W/m2
08:22 46.1 °F 44.8 °F 30.15 in South 12.0 mph 12.0 mph 95 % 0.00 in 12.00 W/m2
08:27 46.1 °F 44.8 °F 30.15 in SSW 9.0 mph 18.0 mph 95 % 0.00 in 21.00 W/m2
08:32 46.2 °F 44.8 °F 30.15 in SSW 9.0 mph 12.0 mph 95 % 0.00 in 14.00 W/m2
08:37 46.2 °F 44.8 °F 30.15 in Calm   9.0 mph 95 % 0.00 in 11.00 W/m2
08:42 46.2 °F 44.8 °F 30.15 in SSW 11.0 mph 13.0 mph 95 % 0.00 in 28.00 W/m2
08:47 46.2 °F 44.8 °F 30.15 in South 6.0 mph 13.0 mph 95 % 0.00 in 40.00 W/m2
08:52 46.2 °F 44.8 °F 30.15 in SSW 3.0 mph 6.0 mph 95 % 0.00 in 35.00 W/m2
08:57 46.2 °F 44.8 °F 30.16 in South 4.0 mph 9.0 mph 95 % 0.00 in 35.00 W/m2
09:02 46.1 °F 44.8 °F 30.16 in SSE 8.0 mph 10.0 mph 95 % 0.00 in 49.00 W/m2
09:07 46.2 °F 44.8 °F 30.15 in SSW 6.0 mph 9.0 mph 95 % 0.00 in 60.00 W/m2
09:12 46.2 °F 44.8 °F 30.15 in SSW 11.0 mph 14.0 mph 95 % 0.00 in 47.00 W/m2
09:17 46.2 °F 44.8 °F 30.15 in Calm   14.0 mph 95 % 0.00 in 65.00 W/m2
09:22 46.2 °F 44.8 °F 30.16 in South 6.0 mph 9.0 mph 95 % 0.00 in 58.00 W/m2
09:27 46.3 °F 45.0 °F 30.16 in SSE 9.0 mph 13.0 mph 95 % 0.00 in 44.00 W/m2
09:32 46.3 °F 45.0 °F 30.16 in South 16.0 mph 16.0 mph 95 % 0.00 in 72.00 W/m2
09:37 46.3 °F 45.0 °F 30.16 in South 7.0 mph 9.0 mph 95 % 0.00 in 40.00 W/m2
09:42 46.3 °F 45.0 °F 30.16 in South 10.0 mph 15.0 mph 95 % 0.00 in 46.00 W/m2
09:47 46.3 °F 45.0 °F 30.17 in Calm     95 % 0.00 in 35.00 W/m2
09:52 46.3 °F 45.0 °F 30.17 in South 12.0 mph 18.0 mph 95 % 0.00 in 37.00 W/m2
09:57 46.2 °F 44.8 °F 30.17 in South 4.0 mph 11.0 mph 95 % 0.00 in 47.00 W/m2
10:02 46.2 °F 44.8 °F 30.17 in South 14.0 mph 14.0 mph 95 % 0.00 in 37.00 W/m2
10:07 46.1 °F 44.8 °F 30.17 in Calm   6.0 mph 95 % 0.00 in 77.00 W/m2
10:12 46.1 °F 44.8 °F 30.17 in SSW 4.0 mph 6.0 mph 95 % 0.00 in 51.00 W/m2
10:17 46.1 °F 44.8 °F 30.18 in South 6.0 mph 11.0 mph 95 % 0.00 in 40.00 W/m2
10:22 46.1 °F 44.8 °F 30.18 in South 12.0 mph 13.0 mph 95 % 0.00 in 53.00 W/m2
10:27 46.1 °F 44.8 °F 30.18 in South 8.0 mph 17.0 mph 95 % 0.08 in 69.00 W/m2
10:32 46.1 °F 44.8 °F 30.18 in SSW 5.0 mph 18.0 mph 95 % 0.08 in 65.00 W/m2
10:37 46.1 °F 44.8 °F 30.18 in South 8.0 mph 10.0 mph 95 % 0.05 in 46.00 W/m2
10:42 46.1 °F 44.8 °F 30.18 in SSW 14.0 mph 17.0 mph 95 % 0.00 in 95.00 W/m2
10:47 46.1 °F 44.8 °F 30.18 in South 15.0 mph 16.0 mph 95 % 0.00 in 111.00 W/m2
10:52 46.1 °F 44.8 °F 30.18 in SSW 14.0 mph 14.0 mph 95 % 0.00 in 90.00 W/m2
10:57 46.1 °F 44.8 °F 30.18 in SSW 11.0 mph 13.0 mph 95 % 0.73 in 90.00 W/m2
11:02 46.2 °F 44.8 °F 30.18 in Calm   10.0 mph 95 % 0.13 in 83.00 W/m2
11:07 46.1 °F 44.8 °F 30.18 in SW 4.0 mph 16.0 mph 95 % 0.06 in 63.00 W/m2
11:12 46.1 °F 44.8 °F 30.18 in SW 8.0 mph 17.0 mph 95 % 0.04 in 130.00 W/m2
11:17 46.0 °F 44.7 °F 30.18 in South 14.0 mph 16.0 mph 95 % 0.04 in 251.00 W/m2
11:22 46.1 °F 44.8 °F 30.18 in South 2.0 mph 13.0 mph 95 % 0.04 in 188.00 W/m2
11:27 46.2 °F 44.8 °F 30.18 in SSE 12.0 mph 14.0 mph 95 % 0.04 in 178.00 W/m2
11:32 46.3 °F 45.0 °F 30.18 in South 10.0 mph 15.0 mph 95 % 0.00 in 241.00 W/m2
11:37 46.4 °F 45.0 °F 30.18 in SSW 14.0 mph 15.0 mph 95 % 0.00 in 158.00 W/m2
11:42 46.5 °F 45.2 °F 30.18 in SSW 4.0 mph 10.0 mph 95 % 0.00 in 105.00 W/m2
11:47 46.5 °F 45.2 °F 30.18 in South 4.0 mph 10.0 mph 95 % 0.00 in 186.00 W/m2
11:52 46.5 °F 45.2 °F 30.18 in SSW 11.0 mph 12.0 mph 95 % 0.00 in 128.00 W/m2
11:57 46.6 °F 45.5 °F 30.18 in SSW 1.0 mph 11.0 mph 96 % 0.00 in 155.00 W/m2
12:02 46.7 °F 45.6 °F 30.17 in SSW 3.0 mph 10.0 mph 96 % 0.00 in 139.00 W/m2
12:07 46.8 °F 45.7 °F 30.17 in SSW 8.0 mph 13.0 mph 96 % 0.00 in 160.00 W/m2
12:12 46.8 °F 45.7 °F 30.17 in South 4.0 mph 8.0 mph 96 % 0.00 in 190.00 W/m2
12:17 46.9 °F 45.8 °F 30.17 in SSW 4.0 mph 8.0 mph 96 % 0.00 in 202.00 W/m2
12:22 47.0 °F 45.9 °F 30.17 in Calm     96 % 0.00 in 195.00 W/m2
12:27 47.1 °F 46.0 °F 30.16 in Calm     96 % 0.00 in 274.00 W/m2
12:32 47.2 °F 46.1 °F 30.16 in Calm   9.0 mph 96 % 0.00 in 510.00 W/m2
12:37 47.4 °F 46.3 °F 30.16 in South 5.0 mph 11.0 mph 96 % 0.00 in 527.00 W/m2
12:42 47.5 °F 46.4 °F 30.16 in Calm   1.0 mph 96 % 0.00 in 142.00 W/m2
12:47 47.5 °F 46.4 °F 30.16 in South 5.0 mph 11.0 mph 96 % 0.00 in 128.00 W/m2
12:52 47.4 °F 46.3 °F 30.16 in Calm   9.0 mph 96 % 0.00 in 272.00 W/m2
12:57 47.4 °F 46.3 °F 30.15 in SSW 5.0 mph 12.0 mph 96 % 0.00 in 381.00 W/m2
13:02 47.5 °F 46.4 °F 30.15 in SW 9.0 mph 9.0 mph 96 % 0.00 in 144.00 W/m2
13:07 47.4 °F 46.3 °F 30.15 in SSE 7.0 mph 10.0 mph 96 % 0.00 in 162.00 W/m2
13:12 47.4 °F 46.3 °F 30.15 in SSW 4.0 mph 9.0 mph 96 % 0.00 in 141.00 W/m2
13:17 47.4 °F 46.3 °F 30.15 in Calm   11.0 mph 96 % 0.00 in 239.00 W/m2
13:22 47.3 °F 46.2 °F 30.14 in South 6.0 mph 10.0 mph 96 % 0.00 in 186.00 W/m2
13:27 47.4 °F 46.3 °F 30.14 in Calm   1.0 mph 96 % 0.00 in 274.00 W/m2
13:32 47.4 °F 46.3 °F 30.14 in South 8.0 mph 12.0 mph 96 % 0.00 in 218.00 W/m2
13:37 47.4 °F 46.3 °F 30.14 in SSW 7.0 mph 11.0 mph 96 % 0.00 in 149.00 W/m2
13:42 47.4 °F 46.3 °F 30.14 in Calm   6.0 mph 96 % 0.00 in 97.00 W/m2
13:48 47.5 °F 46.4 °F 30.14 in South 6.0 mph 7.0 mph 96 % 0.00 in 109.00 W/m2
13:52 47.5 °F 46.4 °F 30.14 in SW 3.0 mph 11.0 mph 96 % 0.00 in 137.00 W/m2
13:57 47.5 °F 46.4 °F 30.14 in SW 4.0 mph 9.0 mph 96 % 0.00 in 113.00 W/m2
14:03 47.5 °F 46.4 °F 30.14 in SW 2.0 mph 7.0 mph 96 % 0.00 in 95.00 W/m2
14:08 47.5 °F 46.4 °F 30.14 in Calm     96 % 0.00 in 104.00 W/m2
14:12 47.5 °F 46.1 °F 30.14 in Calm     95 % 0.00 in 169.00 W/m2
14:18 47.5 °F 46.1 °F 30.13 in Calm     95 % 0.00 in 193.00 W/m2
14:23 47.6 °F 46.2 °F 30.13 in Calm     95 % 0.00 in 313.00 W/m2
14:28 47.7 °F 46.3 °F 30.13 in SW 7.0 mph 12.0 mph 95 % 0.00 in 295.00 W/m2
14:32 47.8 °F 46.4 °F 30.13 in South 14.0 mph 15.0 mph 95 % 0.00 in 202.00 W/m2
14:37 47.8 °F 46.4 °F 30.12 in South 7.0 mph 10.0 mph 95 % 0.00 in 204.00 W/m2
14:42 47.9 °F 46.8 °F 30.12 in Calm   5.0 mph 96 % 0.00 in 195.00 W/m2
14:47 47.9 °F 46.8 °F 30.12 in Calm   9.0 mph 96 % 0.00 in 142.00 W/m2
14:52 47.9 °F 46.8 °F 30.12 in South 6.0 mph 11.0 mph 96 % 0.00 in 151.00 W/m2
14:58 47.9 °F 46.8 °F 30.12 in SSE 9.0 mph 13.0 mph 96 % 0.00 in 171.00 W/m2
15:03 47.9 °F 46.5 °F 30.12 in Calm   10.0 mph 95 % 0.00 in 130.00 W/m2
15:08 47.9 °F 46.5 °F 30.12 in South 6.0 mph 7.0 mph 95 % 0.00 in 95.00 W/m2
15:13 47.9 °F 46.5 °F 30.12 in South 8.0 mph 8.0 mph 95 % 0.00 in 83.00 W/m2
15:18 47.9 °F 46.5 °F 30.12 in SSE 11.0 mph 15.0 mph 95 % 0.00 in 183.00 W/m2
15:23 47.8 °F 46.4 °F 30.12 in SSE 11.0 mph 12.0 mph 95 % 0.00 in 128.00 W/m2
15:28 47.8 °F 46.4 °F 30.12 in Calm   9.0 mph 95 % 0.00 in 114.00 W/m2
15:33 47.8 °F 46.4 °F 30.12 in South 6.0 mph 6.0 mph 95 % 0.00 in 155.00 W/m2
15:38 47.8 °F 46.4 °F 30.12 in Calm   1.0 mph 95 % 0.00 in 113.00 W/m2
15:43 47.8 °F 46.4 °F 30.12 in Calm   9.0 mph 95 % 0.00 in 109.00 W/m2
15:46 47.8 °F 46.4 °F 30.12 in South 6.0 mph 9.0 mph 95 % 0.00 in 120.00 W/m2
15:51 47.8 °F 46.4 °F 30.12 in Calm   11.0 mph 95 % 0.00 in 111.00 W/m2
15:56 47.8 °F 46.4 °F 30.12 in SSW 11.0 mph 13.0 mph 95 % 0.00 in 121.00 W/m2
16:01 47.8 °F 46.4 °F 30.12 in South 10.0 mph 11.0 mph 95 % 0.00 in 104.00 W/m2
16:06 47.7 °F 46.3 °F 30.12 in South 8.0 mph 12.0 mph 95 % 0.00 in 104.00 W/m2
16:11 47.6 °F 46.2 °F 30.12 in South 1.0 mph 12.0 mph 95 % 0.00 in 107.00 W/m2
16:16 47.6 °F 46.2 °F 30.11 in SSE 7.0 mph 10.0 mph 95 % 0.00 in 100.00 W/m2
16:21 47.6 °F 46.2 °F 30.11 in SSE 5.0 mph 9.0 mph 95 % 0.00 in 86.00 W/m2
16:26 47.6 °F 46.2 °F 30.12 in South 2.0 mph 12.0 mph 95 % 0.00 in 79.00 W/m2
16:31 47.5 °F 46.1 °F 30.12 in Calm   10.0 mph 95 % 0.00 in 58.00 W/m2
16:36 47.4 °F 46.0 °F 30.12 in SSW 7.0 mph 9.0 mph 95 % 0.00 in 53.00 W/m2
16:41 47.3 °F 45.9 °F 30.12 in South 4.0 mph 8.0 mph 95 % 0.00 in 40.00 W/m2
16:46 47.3 °F 45.9 °F 30.12 in South 5.0 mph 9.0 mph 95 % 0.00 in 33.00 W/m2
16:51 47.2 °F 45.8 °F 30.12 in Calm   9.0 mph 95 % 0.00 in 26.00 W/m2
16:56 47.2 °F 45.8 °F 30.12 in Calm     95 % 0.00 in 18.00 W/m2
17:01 47.2 °F 45.8 °F 30.12 in Calm     95 % 0.00 in 19.00 W/m2
17:06 47.2 °F 45.8 °F 30.12 in Calm     95 % 0.00 in 16.00 W/m2
17:11 47.2 °F 45.8 °F 30.12 in Calm     95 % 0.00 in 12.00 W/m2
17:16 47.2 °F 45.8 °F 30.12 in Calm     95 % 0.00 in 9.00 W/m2
17:21 47.1 °F 45.7 °F 30.12 in Calm     95 % 0.00 in 5.00 W/m2
17:26 47.0 °F 45.7 °F 30.12 in Calm     95 % 0.00 in 5.00 W/m2
17:31 47.0 °F 45.7 °F 30.12 in Calm     95 % 0.00 in 0.00 W/m2
17:36 47.0 °F 45.7 °F 30.12 in Calm     95 % 0.00 in 0.00 W/m2
17:41 47.0 °F 45.7 °F 30.12 in Calm     95 % 0.00 in 0.00 W/m2
17:46 46.9 °F 45.5 °F 30.12 in Calm     95 % 0.00 in 0.00 W/m2
17:51 46.9 °F 45.5 °F 30.12 in Calm     95 % 0.00 in 0.00 W/m2
17:56 46.8 °F 45.5 °F 30.12 in Calm     95 % 0.00 in 0.00 W/m2
18:01 46.9 °F 45.5 °F 30.13 in Calm     95 % 0.00 in 0.00 W/m2
18:06 46.9 °F 45.5 °F 30.13 in Calm     95 % 0.00 in 0.00 W/m2
18:11 46.9 °F 45.5 °F 30.13 in Calm     95 % 0.00 in 0.00 W/m2
18:16 46.8 °F 45.5 °F 30.13 in Calm     95 % 0.00 in 0.00 W/m2
18:21 46.9 °F 45.5 °F 30.13 in Calm     95 % 0.00 in 0.00 W/m2
18:26 46.9 °F 45.5 °F 30.13 in Calm     95 % 0.00 in 0.00 W/m2
18:31 46.9 °F 45.5 °F 30.14 in Calm     95 % 0.00 in 0.00 W/m2
18:36 46.9 °F 45.5 °F 30.13 in Calm     95 % 0.00 in 0.00 W/m2
18:41 46.9 °F 45.5 °F 30.13 in Calm     95 % 0.00 in 0.00 W/m2
18:46 46.9 °F 45.5 °F 30.14 in Calm     95 % 0.00 in 0.00 W/m2
18:51 46.9 °F 45.5 °F 30.14 in Calm     95 % 0.00 in 0.00 W/m2
18:56 46.9 °F 45.5 °F 30.14 in Calm     95 % 0.00 in 0.00 W/m2
19:01 46.8 °F 45.5 °F 30.14 in Calm     95 % 0.00 in 0.00 W/m2
19:06 46.8 °F 45.5 °F 30.15 in Calm     95 % 0.00 in 0.00 W/m2
19:11 46.9 °F 45.5 °F 30.15 in Calm     95 % 0.00 in 0.00 W/m2
19:16 46.8 °F 45.5 °F 30.15 in Calm     95 % 0.00 in 0.00 W/m2
19:21 46.8 °F 45.5 °F 30.15 in Calm     95 % 0.00 in 0.00 W/m2
19:26 46.7 °F 45.3 °F 30.15 in Calm     95 % 0.00 in 0.00 W/m2
19:31 46.7 °F 45.3 °F 30.15 in Calm     95 % 0.00 in 0.00 W/m2
19:36 46.7 °F 45.3 °F 30.15 in Calm     95 % 0.00 in 0.00 W/m2
19:41 46.7 °F 45.3 °F 30.15 in Calm     95 % 0.00 in 0.00 W/m2
19:46 46.7 °F 45.3 °F 30.15 in Calm     95 % 0.00 in 0.00 W/m2
19:51 46.6 °F 45.2 °F 30.15 in Calm     95 % 0.00 in 0.00 W/m2
19:56 46.7 °F 45.3 °F 30.15 in Calm     95 % 0.00 in 0.00 W/m2
20:01 46.6 °F 45.2 °F 30.15 in Calm     95 % 0.00 in 0.00 W/m2
20:06 46.5 °F 45.2 °F 30.15 in Calm     95 % 0.00 in 0.00 W/m2
20:11 46.4 °F 45.0 °F 30.15 in Calm     95 % 0.00 in 0.00 W/m2
20:16 46.3 °F 45.0 °F 30.14 in Calm     95 % 0.00 in 0.00 W/m2
20:21 46.2 °F 44.8 °F 30.14 in Calm     95 % 0.00 in 0.00 W/m2
20:26 46.1 °F 44.8 °F 30.14 in Calm     95 % 0.00 in 0.00 W/m2
20:31 46.0 °F 44.7 °F 30.15 in Calm     95 % 0.00 in 0.00 W/m2
20:36 46.0 °F 44.7 °F 30.15 in Calm     95 % 0.00 in 0.00 W/m2
20:41 45.9 °F 44.5 °F 30.14 in Calm     95 % 0.00 in 0.00 W/m2
20:46 45.8 °F 44.5 °F 30.14 in Calm     95 % 0.00 in 0.00 W/m2
20:51 45.8 °F 44.5 °F 30.14 in Calm     95 % 0.00 in 0.00 W/m2
20:56 45.7 °F 44.3 °F 30.14 in Calm     95 % 0.00 in 0.00 W/m2
21:01 45.6 °F 44.2 °F 30.14 in Calm     95 % 0.00 in 0.00 W/m2
21:06 45.6 °F 44.2 °F 30.14 in Calm     95 % 0.00 in 0.00 W/m2
21:11 45.5 °F 44.2 °F 30.15 in Calm     95 % 0.00 in 0.00 W/m2
21:16 45.4 °F 44.0 °F 30.15 in Calm     95 % 0.00 in 0.00 W/m2
21:21 45.3 °F 44.0 °F 30.15 in Calm     95 % 0.00 in 0.00 W/m2
21:26 45.2 °F 43.9 °F 30.15 in Calm     95 % 0.00 in 0.00 W/m2
21:31 45.1 °F 43.8 °F 30.15 in Calm     95 % 0.00 in 0.00 W/m2
21:36 45.0 °F 43.7 °F 30.15 in SSE 1.0 mph 7.0 mph 95 % 0.00 in 0.00 W/m2
21:41 45.0 °F 43.7 °F 30.15 in Calm   2.0 mph 95 % 0.00 in 0.00 W/m2
21:46 44.9 °F 43.6 °F 30.15 in Calm     95 % 0.00 in 0.00 W/m2
21:51 44.9 °F 43.6 °F 30.16 in Calm     95 % 0.00 in 0.00 W/m2
21:56 44.8 °F 43.5 °F 30.16 in Calm     95 % 0.00 in 0.00 W/m2
22:01 44.7 °F 43.4 °F 30.16 in Calm     95 % 0.00 in 0.00 W/m2
22:06 44.6 °F 43.3 °F 30.16 in Calm     95 % 0.00 in 0.00 W/m2
22:11 44.6 °F 43.3 °F 30.16 in Calm     95 % 0.00 in 0.00 W/m2
22:16 44.5 °F 43.2 °F 30.16 in Calm     95 % 0.00 in 0.00 W/m2
22:21 44.5 °F 43.2 °F 30.16 in Calm     95 % 0.00 in 0.00 W/m2
22:26 44.5 °F 43.2 °F 30.16 in Calm     95 % 0.00 in 0.00 W/m2
22:31 44.5 °F 43.2 °F 30.16 in Calm     95 % 0.00 in 0.00 W/m2
22:36 44.4 °F 43.1 °F 30.17 in Calm     95 % 0.00 in 0.00 W/m2
22:41 44.5 °F 43.2 °F 30.16 in Calm     95 % 0.00 in 0.00 W/m2
22:46 44.4 °F 43.1 °F 30.16 in Calm     95 % 0.00 in 0.00 W/m2
22:51 44.5 °F 43.2 °F 30.16 in Calm     95 % 0.00 in 0.00 W/m2
22:56 44.5 °F 43.2 °F 30.16 in Calm     95 % 0.00 in 0.00 W/m2
23:01 44.5 °F 43.2 °F 30.16 in Calm     95 % 0.00 in 0.00 W/m2
23:06 44.5 °F 43.2 °F 30.16 in Calm     95 % 0.00 in 0.00 W/m2
23:11 44.5 °F 43.2 °F 30.16 in Calm     95 % 0.00 in 0.00 W/m2
23:16 44.6 °F 43.3 °F 30.16 in Calm     95 % 0.00 in 0.00 W/m2
23:21 44.7 °F 43.4 °F 30.15 in Calm     95 % 0.00 in 0.00 W/m2
23:26 44.8 °F 43.5 °F 30.15 in Calm     95 % 0.00 in 0.00 W/m2
23:31 44.9 °F 43.6 °F 30.14 in Calm   2.0 mph 95 % 0.00 in 0.00 W/m2
23:36 45.0 °F 43.7 °F 30.14 in SE 1.0 mph 5.0 mph 95 % 0.00 in 0.00 W/m2
23:41 45.0 °F 43.7 °F 30.14 in Calm   4.0 mph 95 % 0.00 in 0.00 W/m2
23:46 45.1 °F 43.8 °F 30.14 in Calm   4.0 mph 95 % 0.00 in 0.00 W/m2
23:51 45.1 °F 43.8 °F 30.14 in Calm   5.0 mph 95 % 0.00 in 0.00 W/m2
23:56 45.1 °F 43.8 °F 30.13 in Calm   6.0 mph 95 % 0.00 in 0.00 W/m2
Juneau County Weather
Compliments of Weather Underground - 4.5 mb
 WU-history PHP script courtesy of   Juneau County Weather.
powered by Cumulus v1.9.3 (1059)
Ambient Weather VWS v14.00
Top Contact Website Map Copyright © 2007 - 2018 Foresthillweather.com Never base important decisions on this or any weather information obtained from the Internet